sensor_id;sensor_type;location;lat;lon;timestamp;P1;durP1;ratioP1;P2;durP2;ratioP2
7359;SDS011;3720;48.274;7.796;2022-11-02T00:00:24;11.43;;;2.30;;
7359;SDS011;3720;48.274;7.796;2022-11-02T00:02:56;7.43;;;2.30;;
7359;SDS011;3720;48.274;7.796;2022-11-02T00:05:28;10.25;;;2.38;;
7359;SDS011;3720;48.274;7.796;2022-11-02T00:08:00;10.52;;;2.60;;
7359;SDS011;3720;48.274;7.796;2022-11-02T00:10:32;7.05;;;2.50;;
7359;SDS011;3720;48.274;7.796;2022-11-02T00:13:05;8.77;;;2.50;;
7359;SDS011;3720;48.274;7.796;2022-11-02T00:15:37;9.35;;;2.80;;
7359;SDS011;3720;48.274;7.796;2022-11-02T00:18:10;10.10;;;2.60;;
7359;SDS011;3720;48.274;7.796;2022-11-02T00:20:44;10.77;;;2.60;;
7359;SDS011;3720;48.274;7.796;2022-11-02T00:23:16;11.98;;;2.63;;
7359;SDS011;3720;48.274;7.796;2022-11-02T00:25:48;8.25;;;2.70;;
7359;SDS011;3720;48.274;7.796;2022-11-02T00:28:23;10.05;;;2.83;;
7359;SDS011;3720;48.274;7.796;2022-11-02T00:30:57;7.60;;;2.40;;
7359;SDS011;3720;48.274;7.796;2022-11-02T00:33:29;6.00;;;2.20;;
7359;SDS011;3720;48.274;7.796;2022-11-02T00:36:01;5.28;;;2.28;;
7359;SDS011;3720;48.274;7.796;2022-11-02T00:38:33;7.72;;;2.20;;
7359;SDS011;3720;48.274;7.796;2022-11-02T00:41:05;7.70;;;1.98;;
7359;SDS011;3720;48.274;7.796;2022-11-02T00:43:38;9.68;;;1.90;;
7359;SDS011;3720;48.274;7.796;2022-11-02T00:46:10;9.68;;;2.22;;
7359;SDS011;3720;48.274;7.796;2022-11-02T00:48:41;9.10;;;2.13;;
7359;SDS011;3720;48.274;7.796;2022-11-02T00:51:13;9.50;;;2.15;;
7359;SDS011;3720;48.274;7.796;2022-11-02T00:53:45;7.82;;;2.22;;
7359;SDS011;3720;48.274;7.796;2022-11-02T00:56:17;8.27;;;2.15;;
7359;SDS011;3720;48.274;7.796;2022-11-02T00:58:50;9.60;;;2.22;;
7359;SDS011;3720;48.274;7.796;2022-11-02T01:01:22;6.32;;;1.83;;
7359;SDS011;3720;48.274;7.796;2022-11-02T01:03:54;10.02;;;1.98;;
7359;SDS011;3720;48.274;7.796;2022-11-02T01:06:26;6.45;;;1.88;;
7359;SDS011;3720;48.274;7.796;2022-11-02T01:08:58;9.90;;;2.05;;
7359;SDS011;3720;48.274;7.796;2022-11-02T01:11:30;6.63;;;2.40;;
7359;SDS011;3720;48.274;7.796;2022-11-02T01:14:03;6.88;;;2.00;;
7359;SDS011;3720;48.274;7.796;2022-11-02T01:16:35;8.65;;;2.38;;
7359;SDS011;3720;48.274;7.796;2022-11-02T01:19:09;9.05;;;2.33;;
7359;SDS011;3720;48.274;7.796;2022-11-02T01:21:41;9.05;;;2.80;;
7359;SDS011;3720;48.274;7.796;2022-11-02T01:24:13;12.23;;;2.40;;
7359;SDS011;3720;48.274;7.796;2022-11-02T01:26:48;9.85;;;2.38;;
7359;SDS011;3720;48.274;7.796;2022-11-02T01:29:21;9.18;;;2.53;;
7359;SDS011;3720;48.274;7.796;2022-11-02T01:31:53;9.43;;;2.30;;
7359;SDS011;3720;48.274;7.796;2022-11-02T01:34:25;9.88;;;2.25;;
7359;SDS011;3720;48.274;7.796;2022-11-02T01:36:57;7.63;;;2.20;;
7359;SDS011;3720;48.274;7.796;2022-11-02T01:39:29;8.98;;;2.00;;
7359;SDS011;3720;48.274;7.796;2022-11-02T01:42:01;7.38;;;1.98;;
7359;SDS011;3720;48.274;7.796;2022-11-02T01:44:34;7.90;;;2.03;;
7359;SDS011;3720;48.274;7.796;2022-11-02T01:47:07;5.63;;;2.10;;
7359;SDS011;3720;48.274;7.796;2022-11-02T01:49:52;8.60;;;1.83;;
7359;SDS011;3720;48.274;7.796;2022-11-02T01:52:27;17.63;;;2.40;;
7359;SDS011;3720;48.274;7.796;2022-11-02T01:55:05;7.15;;;2.30;;
7359;SDS011;3720;48.274;7.796;2022-11-02T01:57:42;10.85;;;2.25;;
7359;SDS011;3720;48.274;7.796;2022-11-02T02:00:18;10.57;;;1.90;;
7359;SDS011;3720;48.274;7.796;2022-11-02T02:02:51;8.77;;;2.22;;
7359;SDS011;3720;48.274;7.796;2022-11-02T02:05:26;8.35;;;2.13;;
7359;SDS011;3720;48.274;7.796;2022-11-02T02:07:59;8.25;;;2.25;;
7359;SDS011;3720;48.274;7.796;2022-11-02T02:10:33;6.82;;;2.50;;
7359;SDS011;3720;48.274;7.796;2022-11-02T02:13:05;9.57;;;2.35;;
7359;SDS011;3720;48.274;7.796;2022-11-02T02:15:40;5.60;;;1.83;;
7359;SDS011;3720;48.274;7.796;2022-11-02T02:18:28;6.75;;;2.08;;
7359;SDS011;3720;48.274;7.796;2022-11-02T02:21:19;5.80;;;1.88;;
7359;SDS011;3720;48.274;7.796;2022-11-02T02:24:08;7.53;;;1.85;;
7359;SDS011;3720;48.274;7.796;2022-11-02T02:26:59;4.68;;;1.77;;
7359;SDS011;3720;48.274;7.796;2022-11-02T02:29:42;9.70;;;2.20;;
7359;SDS011;3720;48.274;7.796;2022-11-02T02:32:23;6.07;;;1.90;;
7359;SDS011;3720;48.274;7.796;2022-11-02T02:35:03;6.28;;;2.10;;
7359;SDS011;3720;48.274;7.796;2022-11-02T02:37:45;10.63;;;2.05;;
7359;SDS011;3720;48.274;7.796;2022-11-02T02:40:24;7.55;;;2.08;;
7359;SDS011;3720;48.274;7.796;2022-11-02T02:43:02;9.98;;;2.50;;
7359;SDS011;3720;48.274;7.796;2022-11-02T02:45:42;8.25;;;2.33;;
7359;SDS011;3720;48.274;7.796;2022-11-02T02:50:49;6.70;;;2.17;;
7359;SDS011;3720;48.274;7.796;2022-11-02T02:53:23;11.25;;;2.30;;
7359;SDS011;3720;48.274;7.796;2022-11-02T02:56:00;7.78;;;2.10;;
7359;SDS011;3720;48.274;7.796;2022-11-02T02:58:35;6.22;;;2.17;;
7359;SDS011;3720;48.274;7.796;2022-11-02T03:01:11;6.47;;;2.00;;
7359;SDS011;3720;48.274;7.796;2022-11-02T03:03:44;6.68;;;2.00;;
7359;SDS011;3720;48.274;7.796;2022-11-02T03:06:18;14.13;;;2.55;;
7359;SDS011;3720;48.274;7.796;2022-11-02T03:08:56;10.30;;;2.13;;
7359;SDS011;3720;48.274;7.796;2022-11-02T03:11:33;10.45;;;2.22;;
7359;SDS011;3720;48.274;7.796;2022-11-02T03:14:11;10.73;;;2.00;;
7359;SDS011;3720;48.274;7.796;2022-11-02T03:16:57;10.48;;;2.13;;
7359;SDS011;3720;48.274;7.796;2022-11-02T03:19:37;11.02;;;1.90;;
7359;SDS011;3720;48.274;7.796;2022-11-02T03:22:16;7.65;;;2.05;;
7359;SDS011;3720;48.274;7.796;2022-11-02T03:25:01;12.07;;;2.15;;
7359;SDS011;3720;48.274;7.796;2022-11-02T03:27:43;8.38;;;2.10;;
7359;SDS011;3720;48.274;7.796;2022-11-02T03:30:22;8.32;;;1.95;;
7359;SDS011;3720;48.274;7.796;2022-11-02T03:33:00;10.90;;;2.05;;
7359;SDS011;3720;48.274;7.796;2022-11-02T03:35:39;5.30;;;1.63;;
7359;SDS011;3720;48.274;7.796;2022-11-02T03:38:16;11.02;;;2.28;;
7359;SDS011;3720;48.274;7.796;2022-11-02T03:40:51;10.30;;;1.90;;
7359;SDS011;3720;48.274;7.796;2022-11-02T03:43:26;7.43;;;1.83;;
7359;SDS011;3720;48.274;7.796;2022-11-02T03:45:59;11.35;;;1.80;;
7359;SDS011;3720;48.274;7.796;2022-11-02T03:48:35;7.88;;;1.67;;
7359;SDS011;3720;48.274;7.796;2022-11-02T03:51:12;8.13;;;2.08;;
7359;SDS011;3720;48.274;7.796;2022-11-02T03:53:46;9.02;;;1.73;;
7359;SDS011;3720;48.274;7.796;2022-11-02T03:56:24;9.88;;;1.70;;
7359;SDS011;3720;48.274;7.796;2022-11-02T03:58:59;10.32;;;1.85;;
7359;SDS011;3720;48.274;7.796;2022-11-02T04:01:35;12.90;;;2.15;;
7359;SDS011;3720;48.274;7.796;2022-11-02T04:04:10;8.35;;;1.52;;
7359;SDS011;3720;48.274;7.796;2022-11-02T04:06:43;11.15;;;1.95;;
7359;SDS011;3720;48.274;7.796;2022-11-02T04:09:18;8.65;;;1.90;;
7359;SDS011;3720;48.274;7.796;2022-11-02T04:11:50;9.02;;;1.67;;
7359;SDS011;3720;48.274;7.796;2022-11-02T04:14:39;6.68;;;1.83;;
7359;SDS011;3720;48.274;7.796;2022-11-02T04:17:11;11.55;;;1.95;;
7359;SDS011;3720;48.274;7.796;2022-11-02T04:20:02;8.88;;;1.70;;
7359;SDS011;3720;48.274;7.796;2022-11-02T04:22:34;9.85;;;2.08;;
7359;SDS011;3720;48.274;7.796;2022-11-02T04:25:23;5.75;;;1.40;;
7359;SDS011;3720;48.274;7.796;2022-11-02T04:27:55;6.25;;;1.60;;
7359;SDS011;3720;48.274;7.796;2022-11-02T04:30:36;4.47;;;1.65;;
7359;SDS011;3720;48.274;7.796;2022-11-02T04:33:08;5.15;;;1.40;;
7359;SDS011;3720;48.274;7.796;2022-11-02T04:35:59;5.50;;;1.50;;
7359;SDS011;3720;48.274;7.796;2022-11-02T04:38:32;7.35;;;1.70;;
7359;SDS011;3720;48.274;7.796;2022-11-02T04:41:12;6.32;;;1.63;;
7359;SDS011;3720;48.274;7.796;2022-11-02T04:44:03;8.18;;;1.77;;
7359;SDS011;3720;48.274;7.796;2022-11-02T04:46:36;10.68;;;2.03;;
7359;SDS011;3720;48.274;7.796;2022-11-02T04:49:09;7.80;;;1.70;;
7359;SDS011;3720;48.274;7.796;2022-11-02T04:51:43;7.13;;;1.90;;
7359;SDS011;3720;48.274;7.796;2022-11-02T04:54:14;12.55;;;2.00;;
7359;SDS011;3720;48.274;7.796;2022-11-02T04:56:46;11.30;;;2.05;;
7359;SDS011;3720;48.274;7.796;2022-11-02T04:59:19;8.65;;;1.95;;
7359;SDS011;3720;48.274;7.796;2022-11-02T05:01:51;8.75;;;1.92;;
7359;SDS011;3720;48.274;7.796;2022-11-02T05:04:22;9.65;;;2.25;;
7359;SDS011;3720;48.274;7.796;2022-11-02T05:06:56;9.35;;;1.80;;
7359;SDS011;3720;48.274;7.796;2022-11-02T05:09:29;7.53;;;1.58;;
7359;SDS011;3720;48.274;7.796;2022-11-02T05:12:01;8.45;;;1.67;;
7359;SDS011;3720;48.274;7.796;2022-11-02T05:14:34;6.68;;;1.60;;
7359;SDS011;3720;48.274;7.796;2022-11-02T05:17:06;7.90;;;1.88;;
7359;SDS011;3720;48.274;7.796;2022-11-02T05:19:37;7.03;;;1.70;;
7359;SDS011;3720;48.274;7.796;2022-11-02T05:22:11;7.40;;;1.88;;
7359;SDS011;3720;48.274;7.796;2022-11-02T05:24:43;9.50;;;1.90;;
7359;SDS011;3720;48.274;7.796;2022-11-02T05:27:15;10.48;;;2.13;;
7359;SDS011;3720;48.274;7.796;2022-11-02T05:29:46;8.15;;;2.00;;
7359;SDS011;3720;48.274;7.796;2022-11-02T05:32:18;7.25;;;1.92;;
7359;SDS011;3720;48.274;7.796;2022-11-02T05:34:50;8.43;;;2.10;;
7359;SDS011;3720;48.274;7.796;2022-11-02T05:37:23;8.23;;;2.15;;
7359;SDS011;3720;48.274;7.796;2022-11-02T05:39:55;5.10;;;2.10;;
7359;SDS011;3720;48.274;7.796;2022-11-02T05:42:27;10.77;;;2.50;;
7359;SDS011;3720;48.274;7.796;2022-11-02T05:44:59;8.43;;;2.35;;
7359;SDS011;3720;48.274;7.796;2022-11-02T05:47:32;10.13;;;2.20;;
7359;SDS011;3720;48.274;7.796;2022-11-02T05:50:04;9.65;;;2.33;;
7359;SDS011;3720;48.274;7.796;2022-11-02T05:52:37;9.02;;;2.33;;
7359;SDS011;3720;48.274;7.796;2022-11-02T05:55:09;11.40;;;2.10;;
7359;SDS011;3720;48.274;7.796;2022-11-02T05:57:41;8.63;;;2.25;;
7359;SDS011;3720;48.274;7.796;2022-11-02T06:00:13;8.57;;;2.10;;
7359;SDS011;3720;48.274;7.796;2022-11-02T06:02:45;9.60;;;2.50;;
7359;SDS011;3720;48.274;7.796;2022-11-02T06:05:17;8.23;;;2.50;;
7359;SDS011;3720;48.274;7.796;2022-11-02T06:07:50;8.43;;;2.53;;
7359;SDS011;3720;48.274;7.796;2022-11-02T06:10:22;16.73;;;2.50;;
7359;SDS011;3720;48.274;7.796;2022-11-02T06:12:54;11.00;;;2.55;;
7359;SDS011;3720;48.274;7.796;2022-11-02T06:15:27;6.95;;;2.22;;
7359;SDS011;3720;48.274;7.796;2022-11-02T06:18:00;7.63;;;2.25;;
7359;SDS011;3720;48.274;7.796;2022-11-02T06:20:32;8.35;;;2.10;;
7359;SDS011;3720;48.274;7.796;2022-11-02T06:23:05;10.95;;;2.38;;
7359;SDS011;3720;48.274;7.796;2022-11-02T06:25:37;6.25;;;1.75;;
7359;SDS011;3720;48.274;7.796;2022-11-02T06:28:09;7.50;;;2.53;;
7359;SDS011;3720;48.274;7.796;2022-11-02T06:30:41;10.30;;;2.20;;
7359;SDS011;3720;48.274;7.796;2022-11-02T06:33:13;7.10;;;2.40;;
7359;SDS011;3720;48.274;7.796;2022-11-02T06:35:45;8.73;;;2.00;;
7359;SDS011;3720;48.274;7.796;2022-11-02T06:38:20;10.23;;;2.70;;
7359;SDS011;3720;48.274;7.796;2022-11-02T06:40:52;10.10;;;2.67;;
7359;SDS011;3720;48.274;7.796;2022-11-02T06:43:25;9.18;;;2.58;;
7359;SDS011;3720;48.274;7.796;2022-11-02T06:45:57;10.30;;;2.35;;
7359;SDS011;3720;48.274;7.796;2022-11-02T06:48:29;11.75;;;2.40;;
7359;SDS011;3720;48.274;7.796;2022-11-02T06:51:01;10.20;;;2.20;;
7359;SDS011;3720;48.274;7.796;2022-11-02T06:53:34;8.93;;;2.50;;
7359;SDS011;3720;48.274;7.796;2022-11-02T06:56:06;10.68;;;2.70;;
7359;SDS011;3720;48.274;7.796;2022-11-02T06:58:39;10.75;;;2.63;;
7359;SDS011;3720;48.274;7.796;2022-11-02T07:01:11;7.03;;;2.53;;
7359;SDS011;3720;48.274;7.796;2022-11-02T07:03:44;8.57;;;2.40;;
7359;SDS011;3720;48.274;7.796;2022-11-02T07:06:16;5.35;;;2.10;;
7359;SDS011;3720;48.274;7.796;2022-11-02T07:08:49;7.57;;;2.50;;
7359;SDS011;3720;48.274;7.796;2022-11-02T07:11:21;7.47;;;2.35;;
7359;SDS011;3720;48.274;7.796;2022-11-02T07:13:53;4.63;;;2.03;;
7359;SDS011;3720;48.274;7.796;2022-11-02T07:16:25;6.65;;;2.70;;
7359;SDS011;3720;48.274;7.796;2022-11-02T07:18:56;5.95;;;2.58;;
7359;SDS011;3720;48.274;7.796;2022-11-02T07:21:28;7.35;;;2.70;;
7359;SDS011;3720;48.274;7.796;2022-11-02T07:24:01;7.65;;;3.15;;
7359;SDS011;3720;48.274;7.796;2022-11-02T07:26:33;7.07;;;3.70;;
7359;SDS011;3720;48.274;7.796;2022-11-02T07:29:06;9.00;;;4.03;;
7359;SDS011;3720;48.274;7.796;2022-11-02T07:31:37;9.10;;;4.65;;
7359;SDS011;3720;48.274;7.796;2022-11-02T07:34:09;7.97;;;4.10;;
7359;SDS011;3720;48.274;7.796;2022-11-02T07:36:41;8.30;;;3.42;;
7359;SDS011;3720;48.274;7.796;2022-11-02T07:39:14;8.68;;;3.00;;
7359;SDS011;3720;48.274;7.796;2022-11-02T07:41:47;8.55;;;3.30;;
7359;SDS011;3720;48.274;7.796;2022-11-02T07:44:19;7.30;;;2.50;;
7359;SDS011;3720;48.274;7.796;2022-11-02T07:46:51;7.65;;;2.25;;
7359;SDS011;3720;48.274;7.796;2022-11-02T07:49:23;8.85;;;2.20;;
7359;SDS011;3720;48.274;7.796;2022-11-02T07:51:55;5.55;;;2.17;;
7359;SDS011;3720;48.274;7.796;2022-11-02T07:54:28;6.47;;;2.20;;
7359;SDS011;3720;48.274;7.796;2022-11-02T07:57:00;9.80;;;2.40;;
7359;SDS011;3720;48.274;7.796;2022-11-02T07:59:32;8.48;;;2.20;;
7359;SDS011;3720;48.274;7.796;2022-11-02T08:02:05;7.05;;;1.98;;
7359;SDS011;3720;48.274;7.796;2022-11-02T08:04:39;5.20;;;2.20;;
7359;SDS011;3720;48.274;7.796;2022-11-02T08:07:11;10.63;;;2.35;;
7359;SDS011;3720;48.274;7.796;2022-11-02T08:09:44;7.63;;;2.22;;
7359;SDS011;3720;48.274;7.796;2022-11-02T08:12:16;7.50;;;1.60;;
7359;SDS011;3720;48.274;7.796;2022-11-02T08:14:48;6.10;;;1.90;;
7359;SDS011;3720;48.274;7.796;2022-11-02T08:17:20;6.53;;;2.25;;
7359;SDS011;3720;48.274;7.796;2022-11-02T08:19:52;11.10;;;2.30;;
7359;SDS011;3720;48.274;7.796;2022-11-02T08:22:24;4.97;;;1.70;;
7359;SDS011;3720;48.274;7.796;2022-11-02T08:24:57;9.48;;;2.00;;
7359;SDS011;3720;48.274;7.796;2022-11-02T08:27:29;7.72;;;1.75;;
7359;SDS011;3720;48.274;7.796;2022-11-02T08:30:00;11.13;;;1.92;;
7359;SDS011;3720;48.274;7.796;2022-11-02T08:32:32;9.65;;;2.10;;
7359;SDS011;3720;48.274;7.796;2022-11-02T08:35:05;7.97;;;1.67;;
7359;SDS011;3720;48.274;7.796;2022-11-02T08:37:37;12.57;;;1.75;;
7359;SDS011;3720;48.274;7.796;2022-11-02T08:40:11;7.50;;;1.98;;
7359;SDS011;3720;48.274;7.796;2022-11-02T08:42:43;8.85;;;1.75;;
7359;SDS011;3720;48.274;7.796;2022-11-02T08:45:15;9.77;;;2.10;;
7359;SDS011;3720;48.274;7.796;2022-11-02T08:47:47;12.25;;;1.80;;
7359;SDS011;3720;48.274;7.796;2022-11-02T08:50:19;8.13;;;1.80;;
7359;SDS011;3720;48.274;7.796;2022-11-02T08:52:52;8.88;;;1.75;;
7359;SDS011;3720;48.274;7.796;2022-11-02T08:55:25;7.57;;;2.00;;
7359;SDS011;3720;48.274;7.796;2022-11-02T08:57:57;6.32;;;1.73;;
7359;SDS011;3720;48.274;7.796;2022-11-02T09:00:30;9.20;;;1.95;;
7359;SDS011;3720;48.274;7.796;2022-11-02T09:03:05;10.20;;;1.88;;
7359;SDS011;3720;48.274;7.796;2022-11-02T09:05:38;7.40;;;1.90;;
7359;SDS011;3720;48.274;7.796;2022-11-02T09:08:13;8.38;;;2.00;;
7359;SDS011;3720;48.274;7.796;2022-11-02T09:10:48;7.32;;;1.83;;
7359;SDS011;3720;48.274;7.796;2022-11-02T09:13:21;8.98;;;1.80;;
7359;SDS011;3720;48.274;7.796;2022-11-02T09:15:55;6.28;;;1.77;;
7359;SDS011;3720;48.274;7.796;2022-11-02T09:18:28;8.40;;;1.90;;
7359;SDS011;3720;48.274;7.796;2022-11-02T09:21:00;5.45;;;1.80;;
7359;SDS011;3720;48.274;7.796;2022-11-02T09:23:33;10.63;;;2.35;;
7359;SDS011;3720;48.274;7.796;2022-11-02T09:26:06;9.63;;;2.10;;
7359;SDS011;3720;48.274;7.796;2022-11-02T09:28:38;6.90;;;1.92;;
7359;SDS011;3720;48.274;7.796;2022-11-02T09:31:10;7.18;;;1.88;;
7359;SDS011;3720;48.274;7.796;2022-11-02T09:33:42;10.75;;;1.58;;
7359;SDS011;3720;48.274;7.796;2022-11-02T09:36:13;5.75;;;1.75;;
7359;SDS011;3720;48.274;7.796;2022-11-02T09:38:45;7.88;;;1.92;;
7359;SDS011;3720;48.274;7.796;2022-11-02T09:41:21;5.28;;;1.50;;
7359;SDS011;3720;48.274;7.796;2022-11-02T09:44:00;6.35;;;1.60;;
7359;SDS011;3720;48.274;7.796;2022-11-02T09:46:36;6.10;;;1.40;;
7359;SDS011;3720;48.274;7.796;2022-11-02T09:49:10;4.20;;;1.50;;
7359;SDS011;3720;48.274;7.796;2022-11-02T09:51:45;7.13;;;1.60;;
7359;SDS011;3720;48.274;7.796;2022-11-02T09:54:21;6.93;;;1.77;;
7359;SDS011;3720;48.274;7.796;2022-11-02T09:56:59;5.88;;;1.63;;
7359;SDS011;3720;48.274;7.796;2022-11-02T09:59:35;6.38;;;1.73;;
7359;SDS011;3720;48.274;7.796;2022-11-02T10:02:10;7.43;;;1.63;;
7359;SDS011;3720;48.274;7.796;2022-11-02T10:04:58;7.85;;;2.10;;
7359;SDS011;3720;48.274;7.796;2022-11-02T10:07:49;9.52;;;2.00;;
7359;SDS011;3720;48.274;7.796;2022-11-02T10:10:33;6.60;;;1.58;;
7359;SDS011;3720;48.274;7.796;2022-11-02T10:13:13;7.90;;;2.00;;
7359;SDS011;3720;48.274;7.796;2022-11-02T10:15:54;8.75;;;1.77;;
7359;SDS011;3720;48.274;7.796;2022-11-02T10:18:30;6.50;;;1.70;;
7359;SDS011;3720;48.274;7.796;2022-11-02T10:21:04;7.25;;;1.65;;
7359;SDS011;3720;48.274;7.796;2022-11-02T10:23:39;4.45;;;1.67;;
7359;SDS011;3720;48.274;7.796;2022-11-02T10:26:14;6.88;;;1.70;;
7359;SDS011;3720;48.274;7.796;2022-11-02T10:28:52;6.18;;;1.70;;
7359;SDS011;3720;48.274;7.796;2022-11-02T10:31:29;5.95;;;1.55;;
7359;SDS011;3720;48.274;7.796;2022-11-02T10:34:07;6.45;;;1.60;;
7359;SDS011;3720;48.274;7.796;2022-11-02T10:36:52;8.30;;;1.52;;
7359;SDS011;3720;48.274;7.796;2022-11-02T10:39:39;7.07;;;1.42;;
7359;SDS011;3720;48.274;7.796;2022-11-02T10:42:30;6.38;;;1.60;;
7359;SDS011;3720;48.274;7.796;2022-11-02T10:45:17;7.22;;;1.50;;
7359;SDS011;3720;48.274;7.796;2022-11-02T10:48:08;5.47;;;1.60;;
7359;SDS011;3720;48.274;7.796;2022-11-02T10:50:46;5.10;;;1.73;;
7359;SDS011;3720;48.274;7.796;2022-11-02T10:53:19;7.18;;;1.58;;
7359;SDS011;3720;48.274;7.796;2022-11-02T10:55:54;9.00;;;1.60;;
7359;SDS011;3720;48.274;7.796;2022-11-02T10:58:30;5.43;;;1.45;;
7359;SDS011;3720;48.274;7.796;2022-11-02T11:01:05;5.30;;;1.30;;
7359;SDS011;3720;48.274;7.796;2022-11-02T11:03:51;7.47;;;1.48;;
7359;SDS011;3720;48.274;7.796;2022-11-02T11:06:26;8.55;;;1.70;;
7359;SDS011;3720;48.274;7.796;2022-11-02T11:09:02;9.02;;;1.67;;
7359;SDS011;3720;48.274;7.796;2022-11-02T11:11:36;9.75;;;1.70;;
7359;SDS011;3720;48.274;7.796;2022-11-02T11:14:13;9.20;;;1.48;;
7359;SDS011;3720;48.274;7.796;2022-11-02T11:16:48;5.13;;;1.58;;
7359;SDS011;3720;48.274;7.796;2022-11-02T11:19:31;9.80;;;1.80;;
7359;SDS011;3720;48.274;7.796;2022-11-02T11:22:21;6.30;;;1.55;;
7359;SDS011;3720;48.274;7.796;2022-11-02T11:25:16;7.35;;;1.70;;
7359;SDS011;3720;48.274;7.796;2022-11-02T11:27:52;6.80;;;1.55;;
7359;SDS011;3720;48.274;7.796;2022-11-02T11:30:25;7.60;;;1.40;;
7359;SDS011;3720;48.274;7.796;2022-11-02T11:33:00;7.00;;;1.58;;
7359;SDS011;3720;48.274;7.796;2022-11-02T11:35:35;6.10;;;1.45;;
7359;SDS011;3720;48.274;7.796;2022-11-02T11:38:13;6.43;;;1.60;;
7359;SDS011;3720;48.274;7.796;2022-11-02T11:40:47;8.63;;;2.00;;
7359;SDS011;3720;48.274;7.796;2022-11-02T11:43:23;8.20;;;1.70;;
7359;SDS011;3720;48.274;7.796;2022-11-02T11:45:58;4.90;;;1.42;;
7359;SDS011;3720;48.274;7.796;2022-11-02T11:48:34;6.85;;;2.00;;
7359;SDS011;3720;48.274;7.796;2022-11-02T11:51:20;6.47;;;1.52;;
7359;SDS011;3720;48.274;7.796;2022-11-02T11:54:05;6.05;;;1.67;;
7359;SDS011;3720;48.274;7.796;2022-11-02T11:56:45;6.05;;;1.58;;
7359;SDS011;3720;48.274;7.796;2022-11-02T11:59:18;5.68;;;1.67;;
7359;SDS011;3720;48.274;7.796;2022-11-02T12:01:55;7.93;;;1.70;;
7359;SDS011;3720;48.274;7.796;2022-11-02T12:04:31;5.55;;;1.55;;
7359;SDS011;3720;48.274;7.796;2022-11-02T12:07:09;6.72;;;1.65;;
7359;SDS011;3720;48.274;7.796;2022-11-02T12:10:02;7.70;;;1.70;;
7359;SDS011;3720;48.274;7.796;2022-11-02T12:12:47;5.95;;;1.60;;
7359;SDS011;3720;48.274;7.796;2022-11-02T12:15:36;5.32;;;1.67;;
7359;SDS011;3720;48.274;7.796;2022-11-02T12:21:02;6.18;;;1.60;;
7359;SDS011;3720;48.274;7.796;2022-11-02T12:24:01;7.25;;;1.40;;
7359;SDS011;3720;48.274;7.796;2022-11-02T12:26:43;5.82;;;1.98;;
7359;SDS011;3720;48.274;7.796;2022-11-02T12:29:38;9.93;;;1.95;;
7359;SDS011;3720;48.274;7.796;2022-11-02T12:32:24;5.10;;;1.58;;
7359;SDS011;3720;48.274;7.796;2022-11-02T12:35:25;5.20;;;1.25;;
7359;SDS011;3720;48.274;7.796;2022-11-02T12:38:11;6.95;;;1.50;;
7359;SDS011;3720;48.274;7.796;2022-11-02T12:40:53;6.68;;;1.63;;
7359;SDS011;3720;48.274;7.796;2022-11-02T12:43:37;6.10;;;1.42;;
7359;SDS011;3720;48.274;7.796;2022-11-02T12:46:18;6.40;;;1.40;;
7359;SDS011;3720;48.274;7.796;2022-11-02T12:49:01;6.30;;;1.58;;
7359;SDS011;3720;48.274;7.796;2022-11-02T12:51:47;6.25;;;1.70;;
7359;SDS011;3720;48.274;7.796;2022-11-02T12:54:27;8.38;;;1.45;;
7359;SDS011;3720;48.274;7.796;2022-11-02T12:57:06;6.93;;;1.50;;
7359;SDS011;3720;48.274;7.796;2022-11-02T12:59:42;7.53;;;1.50;;
7359;SDS011;3720;48.274;7.796;2022-11-02T13:02:16;6.30;;;1.42;;
7359;SDS011;3720;48.274;7.796;2022-11-02T13:04:52;5.88;;;1.48;;
7359;SDS011;3720;48.274;7.796;2022-11-02T13:10:05;7.07;;;1.30;;
7359;SDS011;3720;48.274;7.796;2022-11-02T13:12:45;7.35;;;1.63;;
7359;SDS011;3720;48.274;7.796;2022-11-02T13:15:21;7.05;;;1.63;;
7359;SDS011;3720;48.274;7.796;2022-11-02T13:17:56;8.07;;;1.63;;
7359;SDS011;3720;48.274;7.796;2022-11-02T13:20:32;5.55;;;1.38;;
7359;SDS011;3720;48.274;7.796;2022-11-02T13:23:14;9.95;;;1.67;;
7359;SDS011;3720;48.274;7.796;2022-11-02T13:25:51;7.13;;;1.58;;
7359;SDS011;3720;48.274;7.796;2022-11-02T13:28:29;4.88;;;1.40;;
7359;SDS011;3720;48.274;7.796;2022-11-02T13:31:05;4.82;;;1.50;;
7359;SDS011;3720;48.274;7.796;2022-11-02T13:33:45;7.28;;;1.40;;
7359;SDS011;3720;48.274;7.796;2022-11-02T13:36:19;7.15;;;1.38;;
7359;SDS011;3720;48.274;7.796;2022-11-02T13:38:52;6.50;;;1.50;;
7359;SDS011;3720;48.274;7.796;2022-11-02T13:41:35;6.95;;;1.40;;
7359;SDS011;3720;48.274;7.796;2022-11-02T13:44:30;6.75;;;1.27;;
7359;SDS011;3720;48.274;7.796;2022-11-02T13:47:30;7.05;;;1.58;;
7359;SDS011;3720;48.274;7.796;2022-11-02T13:50:21;5.55;;;1.60;;
7359;SDS011;3720;48.274;7.796;2022-11-02T13:52:56;4.82;;;1.35;;
7359;SDS011;3720;48.274;7.796;2022-11-02T13:55:36;6.13;;;1.80;;
7359;SDS011;3720;48.274;7.796;2022-11-02T13:58:19;5.88;;;1.50;;
7359;SDS011;3720;48.274;7.796;2022-11-02T14:00:57;7.05;;;1.60;;
7359;SDS011;3720;48.274;7.796;2022-11-02T14:03:32;4.82;;;1.38;;
7359;SDS011;3720;48.274;7.796;2022-11-02T14:06:18;5.55;;;1.40;;
7359;SDS011;3720;48.274;7.796;2022-11-02T14:08:52;5.63;;;1.40;;
7359;SDS011;3720;48.274;7.796;2022-11-02T14:11:34;8.98;;;1.58;;
7359;SDS011;3720;48.274;7.796;2022-11-02T14:14:20;6.45;;;1.60;;
7359;SDS011;3720;48.274;7.796;2022-11-02T14:16:58;6.72;;;1.30;;
7359;SDS011;3720;48.274;7.796;2022-11-02T14:19:53;5.88;;;1.30;;
7359;SDS011;3720;48.274;7.796;2022-11-02T14:22:33;6.57;;;1.40;;
7359;SDS011;3720;48.274;7.796;2022-11-02T14:25:15;7.35;;;1.40;;
7359;SDS011;3720;48.274;7.796;2022-11-02T14:27:48;5.78;;;1.40;;
7359;SDS011;3720;48.274;7.796;2022-11-02T14:30:40;4.63;;;1.27;;
7359;SDS011;3720;48.274;7.796;2022-11-02T14:33:28;5.68;;;1.42;;
7359;SDS011;3720;48.274;7.796;2022-11-02T14:36:09;5.07;;;1.20;;
7359;SDS011;3720;48.274;7.796;2022-11-02T14:38:56;4.85;;;1.42;;
7359;SDS011;3720;48.274;7.796;2022-11-02T14:41:38;8.90;;;1.55;;
7359;SDS011;3720;48.274;7.796;2022-11-02T14:44:30;6.03;;;1.65;;
7359;SDS011;3720;48.274;7.796;2022-11-02T14:47:28;7.10;;;1.50;;
7359;SDS011;3720;48.274;7.796;2022-11-02T14:50:03;6.78;;;1.65;;
7359;SDS011;3720;48.274;7.796;2022-11-02T14:55:18;10.10;;;1.60;;
7359;SDS011;3720;48.274;7.796;2022-11-02T14:57:54;6.90;;;1.58;;
7359;SDS011;3720;48.274;7.796;2022-11-02T15:00:30;10.30;;;1.40;;
7359;SDS011;3720;48.274;7.796;2022-11-02T15:03:12;5.30;;;1.30;;
7359;SDS011;3720;48.274;7.796;2022-11-02T15:06:00;4.75;;;1.30;;
7359;SDS011;3720;48.274;7.796;2022-11-02T15:08:35;6.70;;;1.50;;
7359;SDS011;3720;48.274;7.796;2022-11-02T15:20:46;6.03;;;1.42;;
7359;SDS011;3720;48.274;7.796;2022-11-02T15:23:59;5.13;;;1.40;;
7359;SDS011;3720;48.274;7.796;2022-11-02T15:26:47;8.77;;;1.67;;
7359;SDS011;3720;48.274;7.796;2022-11-02T15:29:29;8.95;;;1.90;;
7359;SDS011;3720;48.274;7.796;2022-11-02T15:32:07;5.78;;;1.40;;
7359;SDS011;3720;48.274;7.796;2022-11-02T15:34:44;7.80;;;1.73;;
7359;SDS011;3720;48.274;7.796;2022-11-02T15:37:20;8.18;;;1.88;;
7359;SDS011;3720;48.274;7.796;2022-11-02T15:39:55;10.43;;;2.00;;
7359;SDS011;3720;48.274;7.796;2022-11-02T15:42:31;5.97;;;1.45;;
7359;SDS011;3720;48.274;7.796;2022-11-02T15:45:14;8.18;;;1.73;;
7359;SDS011;3720;48.274;7.796;2022-11-02T15:47:54;5.60;;;1.55;;
7359;SDS011;3720;48.274;7.796;2022-11-02T15:50:37;5.32;;;1.55;;
7359;SDS011;3720;48.274;7.796;2022-11-02T15:53:28;5.40;;;1.60;;
7359;SDS011;3720;48.274;7.796;2022-11-02T15:56:16;10.13;;;1.98;;
7359;SDS011;3720;48.274;7.796;2022-11-02T15:59:02;4.75;;;1.70;;
7359;SDS011;3720;48.274;7.796;2022-11-02T16:02:01;5.32;;;1.60;;
7359;SDS011;3720;48.274;7.796;2022-11-02T16:04:42;5.50;;;1.90;;
7359;SDS011;3720;48.274;7.796;2022-11-02T16:07:15;5.32;;;1.38;;
7359;SDS011;3720;48.274;7.796;2022-11-02T16:09:49;7.00;;;1.63;;
7359;SDS011;3720;48.274;7.796;2022-11-02T16:12:21;5.95;;;1.63;;
7359;SDS011;3720;48.274;7.796;2022-11-02T16:14:55;5.03;;;1.60;;
7359;SDS011;3720;48.274;7.796;2022-11-02T16:17:29;6.63;;;1.52;;
7359;SDS011;3720;48.274;7.796;2022-11-02T16:20:10;5.85;;;1.83;;
7359;SDS011;3720;48.274;7.796;2022-11-02T16:22:48;6.00;;;2.30;;
7359;SDS011;3720;48.274;7.796;2022-11-02T16:25:28;7.15;;;2.50;;
7359;SDS011;3720;48.274;7.796;2022-11-02T16:28:09;7.25;;;2.92;;
7359;SDS011;3720;48.274;7.796;2022-11-02T16:31:01;7.57;;;3.20;;